Time;durP1;ratioP1;P1;durP2;ratioP2;P2;SDS_P1;SDS_P2;PMS_P1;PMS_P2;Temp;Humidity;BMP_temperature;BMP_pressure;BME280_temperature;BME280_humidity;BME280_pressure;Samples;Min_cycle;Max_cycle;Signal;HPM_P1;HPM_P2
2023/01/27 00:01:13;;;;;;;;;;;;;;;26.41;47.65;96251.16;586833;241;68564;-69
2023/01/27 00:03:41;;;;;;;;;;;;;;;26.40;48.71;96244.98;586799;241;62995;-69
2023/01/27 00:06:10;;;;;;;;;;;;;;;26.39;49.76;96242.63;586822;241;66457;-69
2023/01/27 00:08:37;;;;;;;;;;;;;;;26.39;49.06;96243.41;586771;241;67573;-69
2023/01/27 00:13:51;;;;;;;;;;;;;;;26.36;48.04;96246.76;586766;241;67476;-69
2023/01/27 00:16:18;;;;;;;;;;;;;;;26.34;47.78;96252.45;586818;241;68724;-69
2023/01/27 00:18:45;;;;;;;;;;;;;;;26.35;49.48;96255.94;586764;241;64982;-69
2023/01/27 00:26:44;;;;;;;;;;;;;;;26.31;48.72;96236.16;586789;241;65355;-68
2023/01/27 00:29:12;;;;;;;;;;;;;;;26.29;48.21;96233.78;586805;241;66152;-68
2023/01/27 00:34:25;;;;;;;;;;;;;;;26.27;48.67;96214.48;586816;241;62992;-68
2023/01/27 00:36:52;;;;;;;;;;;;;;;26.27;47.83;96214.48;586770;241;69599;-68
2023/01/27 00:39:20;;;;;;;;;;;;;;;26.26;48.89;96218.27;586772;241;66269;-69
2023/01/27 00:41:47;;;;;;;;;;;;;;;26.24;48.62;96225.09;586794;241;65246;-68
2023/01/27 00:44:15;;;;;;;;;;;;;;;26.24;50.13;96228.57;586765;241;67242;-68
2023/01/27 00:46:42;;;;;;;;;;;;;;;26.23;47.47;96228.91;586834;241;66511;-68
2023/01/27 00:49:12;;;;;;;;;;;;;;;26.22;46.60;96238.09;586791;241;62902;-68
2023/01/27 00:51:39;;;;;;;;;;;;;;;26.20;47.36;96235.73;586753;241;68762;-68
2023/01/27 00:54:07;;;;;;;;;;;;;;;26.19;48.67;96247.62;586784;241;68732;-68
2023/01/27 00:56:35;;;;;;;;;;;;;;;26.19;48.92;96246.81;586794;241;65699;-68
2023/01/27 00:59:03;;;;;;;;;;;;;;;26.17;49.06;96247.16;586807;241;66478;-68
2023/01/27 01:01:32;;;;;;;;;;;;;;;26.16;48.14;96240.17;586814;241;68542;-68
2023/01/27 01:04:00;;;;;;;;;;;;;;;26.15;47.15;96243.98;586760;241;64910;-69
2023/01/27 01:06:28;;;;;;;;;;;;;;;26.15;48.34;96235.91;586793;241;66644;-69
2023/01/27 01:08:57;;;;;;;;;;;;;;;26.15;48.46;96238.60;586758;241;69476;-70
2023/01/27 01:11:25;;;;;;;;;;;;;;;26.13;48.58;96236.22;586767;241;65073;-69
2023/01/27 01:13:53;;;;;;;;;;;;;;;26.12;49.39;96229.27;586790;241;68892;-69
2023/01/27 01:16:22;;;;;;;;;;;;;;;26.11;47.98;96221.53;586762;241;68605;-69
2023/01/27 01:18:49;;;;;;;;;;;;;;;26.10;48.12;96228.00;586793;241;65073;-69
2023/01/27 01:21:17;;;;;;;;;;;;;;;26.09;49.01;96223.75;586789;241;68649;-69
2023/01/27 01:23:45;;;;;;;;;;;;;;;26.08;48.39;96227.53;586834;241;68656;-69
2023/01/27 01:26:14;;;;;;;;;;;;;;;26.06;49.57;96225.17;586839;241;62641;-64
2023/01/27 01:28:41;;;;;;;;;;;;;;;26.06;49.23;96227.09;586791;241;68381;-69
2023/01/27 01:31:13;;;;;;;;;;;;;;;26.04;48.36;96232.78;586743;241;68713;-69
2023/01/27 01:33:41;;;;;;;;;;;;;;;26.03;47.54;96233.91;586750;241;62962;-69
2023/01/27 01:36:11;;;;;;;;;;;;;;;26.03;47.04;96230.42;586758;241;69729;-69
2023/01/27 01:38:38;;;;;;;;;;;;;;;26.03;48.67;96235.81;586812;241;68577;-69
2023/01/27 01:41:06;;;;;;;;;;;;;;;26.02;48.16;96215.37;586790;241;64838;-69
2023/01/27 01:43:34;;;;;;;;;;;;;;;26.00;48.00;96202.24;586779;241;68895;-69
2023/01/27 01:46:02;;;;;;;;;;;;;;;26.00;47.41;96177.20;586762;241;68790;-69
2023/01/27 01:48:34;;;;;;;;;;;;;;;25.99;47.53;96164.87;586778;241;62904;-69
2023/01/27 01:51:03;;;;;;;;;;;;;;;25.97;46.98;96153.63;586852;241;68833;-70
2023/01/27 01:53:33;;;;;;;;;;;;;;;25.97;48.25;96150.93;586780;242;66227;-70
2023/01/27 01:56:03;;;;;;;;;;;;;;;25.96;48.16;96149.36;586675;241;63039;-70
2023/01/27 01:58:31;;;;;;;;;;;;;;;25.96;47.71;96168.20;586765;242;68868;-70
2023/01/27 02:00:58;;;;;;;;;;;;;;;25.94;47.91;96178.50;586762;241;68658;-70
2023/01/27 02:03:27;;;;;;;;;;;;;;;25.94;47.82;96170.42;586822;241;65133;-70
2023/01/27 02:05:55;;;;;;;;;;;;;;;25.91;47.68;96175.34;585064;241;66529;-70
2023/01/27 02:08:24;;;;;;;;;;;;;;;25.90;47.95;96173.77;586782;241;68547;-70
2023/01/27 02:10:53;;;;;;;;;;;;;;;25.89;47.92;96176.77;586715;241;65047;-70
2023/01/27 02:13:21;;;;;;;;;;;;;;;25.89;47.50;96171.39;586806;241;68910;-66
2023/01/27 02:15:50;;;;;;;;;;;;;;;25.88;47.72;96180.59;586806;241;68519;-64
2023/01/27 02:18:18;;;;;;;;;;;;;;;25.88;48.09;96183.27;586842;241;65910;-65
2023/01/27 02:20:47;;;;;;;;;;;;;;;25.86;48.43;96162.08;586782;241;68948;-64
2023/01/27 02:23:23;;;;;;;;;;;;;;;25.85;48.08;96160.48;586754;241;69085;-65
2023/01/27 02:26:04;;;;;;;;;;;;;;;25.84;47.30;96163.52;586704;241;65873;-65
2023/01/27 02:28:32;;;;;;;;;;;;;;;25.83;47.61;96164.58;586788;241;66304;-65
2023/01/27 02:31:00;;;;;;;;;;;;;;;25.81;47.90;96158.72;586798;241;69485;-65
2023/01/27 02:33:27;;;;;;;;;;;;;;;25.80;47.70;96147.17;586820;241;64889;-65
2023/01/27 02:35:59;;;;;;;;;;;;;;;25.79;48.24;96156.37;586796;241;66725;-65
2023/01/27 02:38:29;;;;;;;;;;;;;;;25.79;48.29;96171.73;586798;241;68989;-64
2023/01/27 02:40:58;;;;;;;;;;;;;;;25.78;49.08;96167.44;586824;241;65048;-64
2023/01/27 02:43:25;;;;;;;;;;;;;;;25.76;48.33;96148.95;586762;239;73731;-63
2023/01/27 02:45:53;;;;;;;;;;;;;;;25.75;48.19;96152.73;586833;241;67604;-63
2023/01/27 02:48:20;;;;;;;;;;;;;;;25.75;49.47;96147.34;586822;241;65060;-63
2023/01/27 02:50:48;;;;;;;;;;;;;;;25.74;47.66;96137.70;586798;239;66573;-63
2023/01/27 02:53:15;;;;;;;;;;;;;;;25.73;48.60;96141.52;586783;241;69242;-68
2023/01/27 02:55:43;;;;;;;;;;;;;;;25.71;47.10;96151.81;586789;241;64974;-68
2023/01/27 02:58:14;;;;;;;;;;;;;;;25.71;47.77;96153.72;586812;241;68815;-68
2023/01/27 03:00:42;;;;;;;;;;;;;;;25.70;48.30;96166.39;586614;241;45998;-68
2023/01/27 03:03:11;;;;;;;;;;;;;;;25.69;47.71;96156.72;586782;241;65675;-70
2023/01/27 03:05:40;;;;;;;;;;;;;;;25.68;48.26;96149.77;586832;241;66203;-69
2023/01/27 03:08:08;;;;;;;;;;;;;;;25.67;48.96;96154.36;586791;241;68813;-69
2023/01/27 03:10:35;;;;;;;;;;;;;;;25.67;48.34;96158.93;586761;241;65727;-69
2023/01/27 03:13:03;;;;;;;;;;;;;;;25.65;46.92;96135.05;586806;241;68853;-69
2023/01/27 03:18:16;;;;;;;;;;;;;;;25.63;46.93;96096.91;586812;241;62716;-69
2023/01/27 03:20:45;;;;;;;;;;;;;;;25.63;48.56;96093.44;586820;241;69028;-64
2023/01/27 03:23:14;;;;;;;;;;;;;;;25.62;48.42;96102.62;586786;241;69274;-64
2023/01/27 03:25:44;;;;;;;;;;;;;;;25.60;48.22;96116.39;586778;241;65907;-64
2023/01/27 03:28:13;;;;;;;;;;;;;;;25.60;47.23;96124.47;586850;241;69362;-64
2023/01/27 03:30:42;;;;;;;;;;;;;;;25.58;45.91;96118.61;586612;241;50847;-64
2023/01/27 03:33:20;;;;;;;;;;;;;;;25.57;48.32;96125.11;586788;241;43759;-63
2023/01/27 03:46:52;;;;;;;;;;;;;;;25.53;47.41;96126.06;586796;241;66809;-64
2023/01/27 03:49:20;;;;;;;;;;;;;;;25.51;48.42;96120.21;586835;241;63114;-64
2023/01/27 03:51:47;;;;;;;;;;;;;;;25.50;48.53;96118.64;586797;241;68758;-64
2023/01/27 03:54:15;;;;;;;;;;;;;;;25.49;47.51;96123.23;586833;241;68513;-64
2023/01/27 03:56:43;;;;;;;;;;;;;;;25.47;47.90;96133.52;586808;241;65332;-64
2023/01/27 03:59:11;;;;;;;;;;;;;;;25.47;48.23;96138.91;586818;241;68726;-64
2023/01/27 04:01:39;;;;;;;;;;;;;;;25.46;47.63;96154.26;586830;241;68369;-64
2023/01/27 04:07:01;;;;;;;;;;;;;;;25.44;48.02;96139.55;586810;241;68992;-63
2023/01/27 04:09:32;;;;;;;;;;;;;;;25.43;47.96;96148.73;586627;241;66572;-62
2023/01/27 04:12:01;;;;;;;;;;;;;;;25.42;48.64;96157.90;585565;241;63833;-62
2023/01/27 04:14:32;;;;;;;;;;;;;;;25.41;47.96;96165.19;584949;242;66389;-62
2023/01/27 04:17:07;;;;;;;;;;;;;;;25.39;48.48;96164.70;584972;242;66461;-62
2023/01/27 04:19:35;;;;;;;;;;;;;;;25.39;48.27;96159.33;584879;242;63113;-62
2023/01/27 04:22:03;;;;;;;;;;;;;;;25.37;48.41;96150.81;584939;242;69700;-62
2023/01/27 04:24:31;;;;;;;;;;;;;;;25.37;48.05;96153.50;584903;242;68765;-62
2023/01/27 04:27:00;;;;;;;;;;;;;;;25.36;48.39;96157.28;584890;242;65095;-62
2023/01/27 04:29:29;;;;;;;;;;;;;;;25.36;48.93;96159.19;584865;242;68951;-62
2023/01/27 04:31:57;;;;;;;;;;;;;;;25.33;48.56;96163.30;584944;242;68329;-62
2023/01/27 04:34:25;;;;;;;;;;;;;;;25.33;48.00;96171.38;584829;242;63833;-62
2023/01/27 04:36:52;;;;;;;;;;;;;;;25.34;48.94;96162.19;584930;242;66692;-62
2023/01/27 04:39:20;;;;;;;;;;;;;;;25.31;47.15;96146.69;584896;242;66663;-62
2023/01/27 04:41:48;;;;;;;;;;;;;;;25.31;47.23;96146.69;584913;239;65078;-68
2023/01/27 04:44:16;;;;;;;;;;;;;;;25.30;47.90;96137.05;584980;242;68965;-68
2023/01/27 04:46:43;;;;;;;;;;;;;;;25.30;47.43;96147.81;584909;242;66491;-68
2023/01/27 04:49:11;;;;;;;;;;;;;;;25.29;47.58;96153.50;584916;242;63191;-69
2023/01/27 04:51:38;;;;;;;;;;;;;;;25.28;46.63;96141.17;584906;242;66610;-68
2023/01/27 04:54:06;;;;;;;;;;;;;;;25.27;47.13;96118.88;584905;242;69187;-68
2023/01/27 04:56:35;;;;;;;;;;;;;;;25.27;47.37;96110.02;584959;242;65030;-68
2023/01/27 04:59:03;;;;;;;;;;;;;;;25.26;47.53;96119.97;584914;242;68791;-68
2023/01/27 05:01:31;;;;;;;;;;;;;;;25.25;47.95;96121.09;584875;242;67270;-68
2023/01/27 05:03:58;;;;;;;;;;;;;;;25.24;48.35;96111.45;584927;242;63812;-68
2023/01/27 05:06:26;;;;;;;;;;;;;;;25.23;47.46;96112.54;584909;242;68869;-68
2023/01/27 05:08:54;;;;;;;;;;;;;;;25.23;47.88;96120.61;584960;242;68493;-68
2023/01/27 05:11:22;;;;;;;;;;;;;;;25.22;49.35;96116.34;585609;241;63102;-68
2023/01/27 05:13:49;;;;;;;;;;;;;;;25.19;49.06;96107.02;586756;241;66216;-68
2023/01/27 05:16:18;;;;;;;;;;;;;;;25.20;49.30;96110.50;586778;241;66742;-68
2023/01/27 05:18:46;;;;;;;;;;;;;;;25.18;48.56;96104.64;586734;241;63109;-68
2023/01/27 05:21:15;;;;;;;;;;;;;;;25.17;48.24;96109.23;586773;241;69105;-68
2023/01/27 05:23:42;;;;;;;;;;;;;;;25.16;47.92;96120.33;586795;241;68622;-69
2023/01/27 05:26:11;;;;;;;;;;;;;;;25.16;47.81;96118.42;586782;241;65094;-69
2023/01/27 05:28:40;;;;;;;;;;;;;;;25.15;49.33;96121.41;586746;241;70307;-69
2023/01/27 05:31:09;;;;;;;;;;;;;;;25.14;48.46;96125.20;586749;241;66616;-64
2023/01/27 05:33:37;;;;;;;;;;;;;;;25.13;47.72;96124.41;586779;241;63136;-64
2023/01/27 05:36:06;;;;;;;;;;;;;;;25.12;48.04;96125.50;586824;241;66746;-64
2023/01/27 05:38:33;;;;;;;;;;;;;;;25.12;48.19;96111.27;586717;241;68754;-64
2023/01/27 05:41:02;;;;;;;;;;;;;;;25.11;49.11;96104.33;586700;241;65148;-64
2023/01/27 05:43:30;;;;;;;;;;;;;;;25.10;49.13;96100.04;586742;241;68849;-64
2023/01/27 05:46:02;;;;;;;;;;;;;;;25.09;47.96;96106.54;586784;241;68717;-64
2023/01/27 05:48:29;;;;;;;;;;;;;;;25.09;48.12;96118.08;586817;241;65145;-63
2023/01/27 05:50:57;;;;;;;;;;;;;;;25.08;47.86;96126.48;586775;241;69743;-63
2023/01/27 05:53:25;;;;;;;;;;;;;;;25.07;48.14;96120.28;586763;241;68553;-63
2023/01/27 05:55:53;;;;;;;;;;;;;;;25.07;48.21;96130.25;586765;239;63162;-63
2023/01/27 05:58:21;;;;;;;;;;;;;;;25.06;48.15;96134.06;586753;241;66624;-63
2023/01/27 06:00:49;;;;;;;;;;;;;;;25.06;47.81;96136.75;586816;242;66407;-63
2023/01/27 06:03:16;;;;;;;;;;;;;;;25.06;48.21;96139.44;586810;242;63090;-63
2023/01/27 06:05:55;;;;;;;;;;;;;;;25.05;48.21;96144.03;586761;242;66650;-63
2023/01/27 06:08:23;;;;;;;;;;;;;;;25.06;48.12;96155.56;586577;242;66690;-64
2023/01/27 06:10:51;;;;;;;;;;;;;;;25.07;49.20;96159.83;586749;242;65258;-64
2023/01/27 06:13:21;;;;;;;;;;;;;;;25.06;48.31;96150.19;586787;242;68869;-65
2023/01/27 06:15:48;;;;;;;;;;;;;;;25.06;48.53;96147.50;586836;242;68575;-64
2023/01/27 06:18:16;;;;;;;;;;;;;;;25.06;48.37;96152.87;586747;239;65089;-64
2023/01/27 06:20:44;;;;;;;;;;;;;;;25.06;48.82;96166.32;586763;242;66695;-64
2023/01/27 06:23:12;;;;;;;;;;;;;;;25.06;49.16;96171.70;586744;242;68561;-64
2023/01/27 06:25:40;;;;;;;;;;;;;;;25.06;48.49;96177.86;586800;242;62944;-64
2023/01/27 06:28:08;;;;;;;;;;;;;;;25.06;49.38;96171.70;586773;242;66388;-64
2023/01/27 06:30:36;;;;;;;;;;;;;;;25.05;49.21;96164.75;586702;242;68722;-64
2023/01/27 06:33:04;;;;;;;;;;;;;;;25.06;48.90;96167.10;586609;242;65100;-64
2023/01/27 06:35:32;;;;;;;;;;;;;;;25.06;49.42;96163.63;586770;242;69175;-64
2023/01/27 06:38:00;;;;;;;;;;;;;;;25.07;49.48;96174.05;586722;242;68583;-64
2023/01/27 06:40:29;;;;;;;;;;;;;;;25.08;49.48;96167.58;586767;242;64925;-64
2023/01/27 06:42:57;;;;;;;;;;;;;;;25.09;49.24;96160.30;586829;242;68976;-64
2023/01/27 06:45:24;;;;;;;;;;;;;;;25.10;49.68;96164.56;586740;239;68736;-64
2023/01/27 06:47:56;;;;;;;;;;;;;;;25.10;49.60;96175.31;586772;242;65906;-64
2023/01/27 06:50:24;;;;;;;;;;;;;;;25.11;48.42;96175.01;586788;241;68820;-64
2023/01/27 06:52:52;;;;;;;;;;;;;;;25.12;50.04;96175.80;586782;241;66558;-64
2023/01/27 06:55:19;;;;;;;;;;;;;;;25.13;49.50;96182.77;586799;241;63092;-64
2023/01/27 06:57:47;;;;;;;;;;;;;;;25.15;50.23;96191.31;586775;241;66709;-65
2023/01/27 07:00:15;;;;;;;;;;;;;;;25.15;48.00;96188.63;585186;241;68755;-64
2023/01/27 07:02:43;;;;;;;;;;;;;;;25.16;49.74;96190.23;579299;241;65085;-64
2023/01/27 07:05:12;;;;;;;;;;;;;;;25.16;49.02;96191.02;578510;245;68955;-64
2023/01/27 07:07:39;;;;;;;;;;;;;;;25.19;49.80;96197.66;578426;245;68771;-64
2023/01/27 07:10:07;;;;;;;;;;;;;;;25.21;50.06;96195.45;578269;245;62784;-64
2023/01/27 07:12:36;;;;;;;;;;;;;;;25.23;49.76;96193.20;576275;245;68809;-64
2023/01/27 07:15:07;;;;;;;;;;;;;;;25.25;50.82;96191.00;576089;246;68503;-64
2023/01/27 07:17:35;;;;;;;;;;;;;;;25.27;51.78;96186.10;576123;246;65542;-65
2023/01/27 07:20:03;;;;;;;;;;;;;;;25.29;49.57;96186.58;576101;246;68922;-64
2023/01/27 07:22:31;;;;;;;;;;;;;;;25.32;50.93;96185.94;576099;246;68789;-65
2023/01/27 07:24:58;;;;;;;;;;;;;;;25.34;50.70;96186.39;576063;246;65126;-65
2023/01/27 07:27:27;;;;;;;;;;;;;;;25.36;51.00;96194.16;576145;246;66754;-64
2023/01/27 07:29:54;;;;;;;;;;;;;;;25.37;49.88;96182.27;576132;246;68741;-62
2023/01/27 07:32:22;;;;;;;;;;;;;;;25.38;51.78;96184.66;576055;246;65225;-62
2023/01/27 07:34:49;;;;;;;;;;;;;;;25.40;50.70;96182.45;576139;246;66819;-63
2023/01/27 07:37:17;;;;;;;;;;;;;;;25.42;49.65;96174.83;576161;246;66738;-63
2023/01/27 07:39:46;;;;;;;;;;;;;;;25.43;49.66;96181.80;575679;246;62968;-63
2023/01/27 07:42:13;;;;;;;;;;;;;;;25.46;49.89;96178.47;574963;246;68518;-62
2023/01/27 07:44:41;;;;;;;;;;;;;;;25.47;49.86;96180.03;575941;246;68545;-63
2023/01/27 07:47:08;;;;;;;;;;;;;;;25.50;48.77;96183.20;576145;246;65144;-63
2023/01/27 07:49:36;;;;;;;;;;;;;;;25.51;49.37;96177.52;575800;246;69213;-61
2023/01/27 07:52:03;;;;;;;;;;;;;;;25.52;49.68;96173.70;576048;246;68820;-62
2023/01/27 07:54:31;;;;;;;;;;;;;;;25.55;50.43;96183.83;576113;246;64980;-65
2023/01/27 07:57:00;;;;;;;;;;;;;;;25.57;49.11;96180.83;576102;246;68805;-62
2023/01/27 07:59:27;;;;;;;;;;;;;;;25.59;48.83;96178.58;576117;246;68734;-63
2023/01/27 08:01:55;;;;;;;;;;;;;;;25.60;48.06;96178.27;576118;246;64965;-66
2023/01/27 08:04:22;;;;;;;;;;;;;;;25.64;41.57;96176.50;576033;246;68614;-64
2023/01/27 08:06:50;;;;;;;;;;;;;;;25.74;42.70;96175.37;576114;246;68477;-66
2023/01/27 08:09:17;;;;;;;;;;;;;;;25.80;43.71;96171.39;576186;243;65091;-64
2023/01/27 08:11:45;;;;;;;;;;;;;;;25.88;42.13;96170.60;575373;245;68532;-67
2023/01/27 08:14:12;;;;;;;;;;;;;;;25.94;42.49;96173.91;574925;246;68485;-66
2023/01/27 08:16:40;;;;;;;;;;;;;;;25.97;42.48;96161.70;574903;246;65156;-65
2023/01/27 08:19:07;;;;;;;;;;;;;;;26.03;41.28;96165.81;574811;246;68652;-63
2023/01/27 08:21:35;;;;;;;;;;;;;;;26.08;41.69;96168.30;574882;246;68516;-64
2023/01/27 08:24:02;;;;;;;;;;;;;;;26.15;39.43;96155.12;574903;246;63094;-67
2023/01/27 08:26:30;;;;;;;;;;;;;;;26.27;41.41;96154.41;574932;246;68370;-69
2023/01/27 08:28:57;;;;;;;;;;;;;;;26.44;41.28;96154.33;574947;246;68347;-67
2023/01/27 08:31:25;;;;;;;;;;;;;;;26.46;41.13;96154.77;574914;246;64873;-68
2023/01/27 08:33:53;;;;;;;;;;;;;;;26.53;42.81;96156.98;574822;246;66504;-63
2023/01/27 08:36:22;;;;;;;;;;;;;;;26.53;45.31;96149.69;574870;246;68912;-63
2023/01/27 08:38:50;;;;;;;;;;;;;;;26.53;47.54;96148.91;574931;246;65068;-66
2023/01/27 08:41:19;;;;;;;;;;;;;;;26.48;48.18;96149.06;574934;246;68881;-63
2023/01/27 08:43:49;;;;;;;;;;;;;;;26.43;45.61;96149.25;574920;246;66609;-64
2023/01/27 08:46:17;;;;;;;;;;;;;;;26.39;45.38;96145.65;574811;246;65048;-64
2023/01/27 08:48:44;;;;;;;;;;;;;;;26.37;46.50;96154.05;572546;245;65681;-65
2023/01/27 08:51:14;;;;;;;;;;;;;;;26.33;45.14;96148.53;573794;246;68713;-65
2023/01/27 08:53:41;;;;;;;;;;;;;;;26.32;45.22;96152.32;574586;246;64890;-64
2023/01/27 08:56:11;;;;;;;;;;;;;;;26.31;46.13;96145.36;574315;246;68430;-65
2023/01/27 08:58:38;;;;;;;;;;;;;;;26.29;46.54;96147.59;574532;246;68749;-64
2023/01/27 09:01:06;;;;;;;;;;;;;;;26.28;47.22;96140.64;574765;246;63832;-64
2023/01/27 09:03:35;;;;;;;;;;;;;;;26.27;46.64;96133.68;574905;246;69084;-65
2023/01/27 09:06:03;;;;;;;;;;;;;;;26.25;46.72;96133.21;574922;246;68690;-65
2023/01/27 09:08:30;;;;;;;;;;;;;;;26.25;46.45;96130.52;574859;246;65059;-64
2023/01/27 09:10:58;;;;;;;;;;;;;;;26.29;46.55;96130.64;574988;245;68913;-64
2023/01/27 09:13:27;;;;;;;;;;;;;;;26.28;46.94;96121.78;576096;246;66591;-65
2023/01/27 09:15:54;;;;;;;;;;;;;;;26.30;46.88;96116.86;576060;246;65138;-64
2023/01/27 09:18:22;;;;;;;;;;;;;;;26.31;45.34;96117.65;576161;246;68834;-65
2023/01/27 09:20:49;;;;;;;;;;;;;;;26.30;40.72;96110.66;576100;246;68767;-64
2023/01/27 09:23:16;;;;;;;;;;;;;;;26.31;40.42;96113.05;576091;246;65286;-63
2023/01/27 09:25:44;;;;;;;;;;;;;;;26.33;42.63;96118.91;576110;246;66785;-64
2023/01/27 09:28:21;;;;;;;;;;;;;;;26.38;42.96;96109.03;576047;246;68631;-64
2023/01/27 09:30:41;;;;;;;;;;;;;;;26.42;43.05;96113.45;575778;246;63621;-63
2023/01/27 09:33:08;;;;;;;;;;;;;;;26.41;38.46;96116.45;576112;246;68804;-65
2023/01/27 09:35:52;;;;;;;;;;;;;;;26.43;45.67;96114.23;576104;246;68780;-62
2023/01/27 09:38:21;;;;;;;;;;;;;;;26.41;46.12;96117.27;575791;246;63706;-65
2023/01/27 09:40:53;;;;;;;;;;;;;;;26.41;45.72;96117.27;575524;246;70113;-66
2023/01/27 09:43:32;;;;;;;;;;;;;;;26.42;45.15;96118.05;576031;246;66355;-67
2023/01/27 09:46:04;;;;;;;;;;;;;;;26.43;46.79;96116.92;576148;246;62940;-68
2023/01/27 09:48:39;;;;;;;;;;;;;;;26.45;43.71;96120.09;576161;246;67453;-65
2023/01/27 09:51:09;;;;;;;;;;;;;;;26.41;46.41;96117.27;575979;246;67033;-68
2023/01/27 09:53:54;;;;;;;;;;;;;;;26.42;46.01;96112.66;575934;246;65202;-67
2023/01/27 09:56:30;;;;;;;;;;;;;;;26.41;46.75;96108.38;576040;246;68989;-68
2023/01/27 09:59:17;;;;;;;;;;;;;;;26.41;45.65;96094.91;575628;246;68701;-68
2023/01/27 10:01:49;;;;;;;;;;;;;;;26.40;46.01;96102.20;576081;246;62796;-67
2023/01/27 10:04:31;;;;;;;;;;;;;;;26.42;45.94;96105.37;576034;246;68911;-66
2023/01/27 10:07:00;;;;;;;;;;;;;;;26.43;45.58;96106.15;576187;246;68840;-68
2023/01/27 10:09:34;;;;;;;;;;;;;;;26.43;45.40;96111.53;576143;246;63145;-71
2023/01/27 10:12:06;;;;;;;;;;;;;;;26.45;45.81;96109.31;575333;245;66334;-71
2023/01/27 10:14:38;;;;;;;;;;;;;;;26.48;46.35;96106.74;574795;246;68926;-71
2023/01/27 10:17:07;;;;;;;;;;;;;;;26.50;46.17;96103.73;574474;246;63895;-71
2023/01/27 10:19:40;;;;;;;;;;;;;;;26.52;44.95;96099.63;574106;246;69101;-71
2023/01/27 10:22:09;;;;;;;;;;;;;;;26.55;46.52;96092.79;573998;246;66857;-71
2023/01/27 10:24:38;;;;;;;;;;;;;;;26.55;46.40;96093.57;574449;246;61910;-72
2023/01/27 10:27:08;;;;;;;;;;;;;;;26.56;45.18;96091.66;574544;246;68719;-70
2023/01/27 10:29:43;;;;;;;;;;;;;;;26.58;46.61;96091.34;573384;246;68759;-69
2023/01/27 10:32:27;;;;;;;;;;;;;;;26.59;45.10;96091.00;574907;246;65059;-72
2023/01/27 10:34:58;;;;;;;;;;;;;;;26.58;47.27;96086.73;574916;246;68971;-72
2023/01/27 10:37:30;;;;;;;;;;;;;;;26.61;45.32;96080.69;574437;246;68818;-69
2023/01/27 10:40:05;;;;;;;;;;;;;;;26.61;45.74;96077.99;574617;246;65201;-70
2023/01/27 10:42:42;;;;;;;;;;;;;;;26.63;45.80;96081.16;574939;246;50052;-70
2023/01/27 10:45:20;;;;;;;;;;;;;;;26.64;46.35;96076.55;574849;245;68800;-70
2023/01/27 10:47:49;;;;;;;;;;;;;;;26.65;47.48;96072.72;574683;246;64952;-71
2023/01/27 10:50:20;;;;;;;;;;;;;;;26.65;46.26;96070.80;574848;246;66751;-73
2023/01/27 10:52:49;;;;;;;;;;;;;;;26.67;44.32;96073.19;574922;244;68733;-73
2023/01/27 10:55:21;;;;;;;;;;;;;;;26.68;45.48;96067.48;574802;244;64911;-72
2023/01/27 10:57:56;;;;;;;;;;;;;;;26.69;45.37;96063.66;574856;246;68663;-73
2023/01/27 11:00:31;;;;;;;;;;;;;;;26.69;39.43;96060.17;574866;246;66403;-73
2023/01/27 11:03:00;;;;;;;;;;;;;;;26.74;44.24;96057.28;574883;246;65978;-73
2023/01/27 11:05:35;;;;;;;;;;;;;;;26.73;45.00;96059.16;574735;246;66687;-74
2023/01/27 11:08:04;;;;;;;;;;;;;;;26.72;45.79;96062.98;574557;246;68888;-72
2023/01/27 11:10:37;;;;;;;;;;;;;;;26.74;45.41;96058.06;574885;246;64946;-72
2023/01/27 11:13:04;;;;;;;;;;;;;;;26.76;44.50;96052.32;574873;245;68954;-73
2023/01/27 11:15:33;;;;;;;;;;;;;;;26.81;44.23;96049.42;574903;246;68929;-73
2023/01/27 11:18:21;;;;;;;;;;;;;;;26.86;45.12;96051.13;574884;246;65060;-73
2023/01/27 11:20:56;;;;;;;;;;;;;;;26.88;42.96;96051.59;574948;246;68883;-74
2023/01/27 11:23:28;;;;;;;;;;;;;;;26.88;43.41;96049.68;574847;246;66504;-72
2023/01/27 11:26:00;;;;;;;;;;;;;;;26.93;43.92;96051.39;574760;246;65187;-72
2023/01/27 11:28:45;;;;;;;;;;;;;;;26.90;41.25;96046.64;574899;246;68619;-71
2023/01/27 11:31:33;;;;;;;;;;;;;;;26.89;45.40;96031.59;574825;246;68429;-72
2023/01/27 11:34:05;;;;;;;;;;;;;;;26.89;45.11;96028.90;574856;246;65435;-73
2023/01/27 11:36:33;;;;;;;;;;;;;;;26.88;45.99;96028.11;574902;246;66751;-73
2023/01/27 11:39:05;;;;;;;;;;;;;;;26.88;46.01;96030.03;574868;246;68717;-73
2023/01/27 11:41:35;;;;;;;;;;;;;;;26.87;43.92;96029.22;574880;246;63002;-73
2023/01/27 11:44:03;;;;;;;;;;;;;;;26.88;45.02;96027.33;574864;246;72544;-72
2023/01/27 11:46:31;;;;;;;;;;;;;;;26.88;45.06;96025.42;574846;246;68823;-73
2023/01/27 11:48:59;;;;;;;;;;;;;;;26.88;46.52;96025.42;574954;246;65144;-73
2023/01/27 11:51:27;;;;;;;;;;;;;;;26.87;45.72;96026.52;574904;246;68907;-73
2023/01/27 11:54:00;;;;;;;;;;;;;;;26.88;43.78;96032.73;574774;246;68735;-72
2023/01/27 11:56:28;;;;;;;;;;;;;;;26.88;45.47;96033.51;574986;246;62962;-73
2023/01/27 11:59:00;;;;;;;;;;;;;;;26.88;45.91;96030.03;574824;246;66650;-72
2023/01/27 12:01:35;;;;;;;;;;;;;;;26.89;44.10;96026.20;574615;246;68718;-73
2023/01/27 12:04:13;;;;;;;;;;;;;;;26.89;45.32;96023.51;573736;246;65067;-74
2023/01/27 12:06:42;;;;;;;;;;;;;;;26.89;45.90;96021.59;574741;246;66621;-74
2023/01/27 12:09:28;;;;;;;;;;;;;;;26.89;46.01;96020.81;574828;246;68702;-75
2023/01/27 12:12:16;;;;;;;;;;;;;;;26.90;45.21;96025.07;574918;245;62805;-73
2023/01/27 12:14:56;;;;;;;;;;;;;;;26.90;45.41;96022.37;574941;246;68694;-70
2023/01/27 12:17:34;;;;;;;;;;;;;;;26.91;46.08;96024.75;574709;246;68170;-68
2023/01/27 12:20:03;;;;;;;;;;;;;;;26.92;44.55;96020.92;574831;244;65297;-66
2023/01/27 12:22:33;;;;;;;;;;;;;;;26.94;45.02;96021.38;574847;246;68590;-68
2023/01/27 12:25:02;;;;;;;;;;;;;;;26.90;40.22;96025.88;574588;246;68768;-71
2023/01/27 12:27:30;;;;;;;;;;;;;;;26.92;44.91;96022.84;574909;246;63104;-75
2023/01/27 12:29:59;;;;;;;;;;;;;;;26.89;45.83;96024.29;574968;246;68633;-71
2023/01/27 12:32:28;;;;;;;;;;;;;;;26.87;46.16;96028.44;574873;246;68435;-73
2023/01/27 12:34:57;;;;;;;;;;;;;;;26.85;46.35;96028.00;574272;246;63003;-71
2023/01/27 12:37:32;;;;;;;;;;;;;;;26.83;46.04;96030.23;574911;246;68597;-74
2023/01/27 12:40:04;;;;;;;;;;;;;;;26.82;45.10;96029.45;574869;246;68802;-74
2023/01/27 12:42:36;;;;;;;;;;;;;;;26.82;45.68;96023.25;574751;246;62968;-71
2023/01/27 12:45:23;;;;;;;;;;;;;;;26.79;45.73;96030.09;574915;246;68702;-73
2023/01/27 12:48:11;;;;;;;;;;;;;;;26.80;45.46;96034.38;574855;246;66494;-75
2023/01/27 12:50:40;;;;;;;;;;;;;;;26.79;39.60;96038.98;574852;246;65213;-72
2023/01/27 12:53:15;;;;;;;;;;;;;;;26.82;45.07;96040.23;574917;246;69167;-71
2023/01/27 12:55:50;;;;;;;;;;;;;;;26.82;45.23;96042.12;574842;246;66626;-71
2023/01/27 12:58:37;;;;;;;;;;;;;;;26.80;44.91;96039.77;574879;246;63097;-71
2023/01/27 13:01:07;;;;;;;;;;;;;;;26.81;45.45;96041.34;574873;246;68759;-72
2023/01/27 13:03:39;;;;;;;;;;;;;;;26.78;44.42;96034.70;573965;246;68722;-71
2023/01/27 13:06:07;;;;;;;;;;;;;;;26.78;43.74;96036.61;574852;246;65378;-71
2023/01/27 13:08:35;;;;;;;;;;;;;;;26.77;44.46;96041.22;574951;246;68850;-71
2023/01/27 13:11:03;;;;;;;;;;;;;;;26.77;45.56;96035.83;574726;244;68867;-71
2023/01/27 13:13:31;;;;;;;;;;;;;;;26.77;44.41;96037.75;574830;246;63707;-71
2023/01/27 13:16:03;;;;;;;;;;;;;;;26.76;44.49;96042.36;574850;246;66822;-72
2023/01/27 13:18:35;;;;;;;;;;;;;;;26.78;45.00;96036.61;574842;246;66499;-70
2023/01/27 13:21:16;;;;;;;;;;;;;;;26.78;45.51;96045.48;565828;246;65263;-69
2023/01/27 13:23:45;;;;;;;;;;;;;;;26.79;44.17;96048.95;574866;246;70840;-71
2023/01/27 13:26:14;;;;;;;;;;;;;;;26.77;44.82;96046.61;574819;246;66531;-71
2023/01/27 13:28:52;;;;;;;;;;;;;;;26.77;45.25;96049.31;574909;246;62988;-70